Chicago O'Hare International Airport
KORD : rendu visible

Aérodrome :











RETROUVEZ-NOUS SUR...

 
LOGIN :

S'inscrire | Disclaimer

   EN    FR    IT 

 









Légende :    VFR   VFR Marginal   IFR   IFR Intensif   IFR Très Intensif
Visi : 
Plafond : 
>= 8 km
>= 3000ft
5 à 8 km
1000 à 3000 ft
1500m à 5 km
500 à 1000 ft
800 à 1500m
200 à 500 ft
< 800m
< 200 ft
Symboles :   Orages  Brouillard  Fortes neiges  Fortes précipitations  Vent > 20 kt






- Altitude de l'aérodrome : 672 ft
- Code IATA : ORD


KORD - Chicago O'Hare International

DERNIER METAR :
  • 260551Z 09004KT 10SM BKN190 OVC300 17/06 A2985 RMK AO2 SLP104 T01670056 10217 20156 402440133 58015

METARs EXPIRÉS :
  • 260451Z 11005KT 10SM SCT210 OVC300 16/06 A2987 RMK AO2 SLP112 T01610061
  • 260351Z 11004KT 10SM BKN250 16/04 A2989 RMK AO2 SLP118 T01610044
  • 260251Z 09005KT 10SM BKN250 18/04 A2989 RMK AO2 SLP120 T01780039 53005
  • 260151Z 09006KT 10SM SCT250 19/03 A2988 RMK AO2 SLP116 T01890028

TAF KORD
Valide du 26 à 06h jusqu'au 27 à 12h UTC


260529Z 2606/2712 12008KT P6SM BKN250
FM261600 14012G19KT 5SM -SHRA SCT020 OVC040
TEMPO 2616/2618 3SM TSRA OVC040CB
FM261800 16012G20KT P6SM VCSH SCT025 BKN040
PROB30 2622/2701 4SM TSRA BKN030CB
FM270100 23011G17KT P6SM VCSH SCT015 BKN030
FM270600 29011G17KT P6SM BKN015
FIR KZAU / Amérique du Nord



MET'MAP, la Météo Aéronautique d'un coup d'oeil ! - Copyright ORBIFLY Décembre 2007 - Disclaimer

ORBIFLY MET'MAP TEAM :

Programmation & Développement : Alexandra Zaïnal
Sur une idée originale de : Baudouin d'Aumeries
Soutien technique & logistique : Manuel Goepfert
Assistance : Marc-Olivier Méhu




SOURCES & CREDITS :

   NOAA       Earth
Advisory